createdAt,value
2023-04-25T00:01:52.611Z,11.60
2023-04-25T00:04:23.110Z,11.60
2023-04-25T00:06:53.523Z,11.60
2023-04-25T00:09:22.650Z,11.60
2023-04-25T00:11:51.794Z,11.50
2023-04-25T00:14:20.771Z,11.50
2023-04-25T00:16:52.930Z,11.50
2023-04-25T00:19:22.099Z,11.50
2023-04-25T00:21:51.255Z,11.40
2023-04-25T00:24:20.224Z,11.30
2023-04-25T00:26:49.340Z,11.20
2023-04-25T00:29:18.407Z,11.20
2023-04-25T00:31:47.480Z,11.10
2023-04-25T00:34:18.024Z,11.00
2023-04-25T00:36:47.161Z,11.00
2023-04-25T00:39:16.130Z,11.00
2023-04-25T00:41:46.877Z,11.00
2023-04-25T00:44:18.121Z,11.00
2023-04-25T00:46:49.115Z,11.00
2023-04-25T00:49:19.742Z,11.00
2023-04-25T00:51:49.007Z,10.90
2023-04-25T00:54:18.631Z,10.90
2023-04-25T00:56:48.072Z,10.90
2023-04-25T00:59:17.976Z,10.90
2023-04-25T01:01:48.211Z,10.90
2023-04-25T01:04:19.219Z,10.90
2023-04-25T01:06:48.440Z,10.90
2023-04-25T01:09:18.111Z,10.90
2023-04-25T01:11:47.514Z,10.80
2023-04-25T01:14:16.483Z,10.90
2023-04-25T01:16:46.021Z,10.90
2023-04-25T01:19:21.039Z,10.90
2023-04-25T01:21:51.544Z,10.90
2023-04-25T01:24:21.609Z,10.80
2023-04-25T01:26:52.316Z,10.80
2023-04-25T01:29:26.627Z,10.70
2023-04-25T01:31:56.262Z,10.70
2023-04-25T01:34:25.340Z,10.70
2023-04-25T01:36:56.642Z,10.70
2023-04-25T01:39:26.236Z,10.60
2023-04-25T01:41:57.236Z,10.70
2023-04-25T01:44:27.015Z,10.70
2023-04-25T01:46:56.669Z,10.60
2023-04-25T01:49:25.655Z,10.60
2023-04-25T01:51:56.356Z,10.50
2023-04-25T01:54:25.526Z,10.50
2023-04-25T01:56:54.653Z,10.50
2023-04-25T01:59:24.686Z,10.50
2023-04-25T02:02:09.475Z,10.50
2023-04-25T02:04:39.175Z,10.50
2023-04-25T02:07:10.342Z,10.50
2023-04-25T02:09:51.009Z,10.50
2023-04-25T02:12:21.780Z,10.50
2023-04-25T02:15:15.285Z,10.50
2023-04-25T02:18:09.495Z,10.50
2023-04-25T02:20:39.778Z,10.50
2023-04-25T02:23:11.039Z,10.60
2023-04-25T02:25:40.473Z,10.60
2023-04-25T02:28:09.852Z,10.60
2023-04-25T02:30:39.195Z,10.60
2023-04-25T02:33:08.517Z,10.70
2023-04-25T02:35:38.613Z,10.70
2023-04-25T02:38:07.577Z,10.70
2023-04-25T02:40:38.172Z,10.70
2023-04-25T02:43:07.242Z,10.70
2023-04-25T02:45:36.287Z,10.70
2023-04-25T02:48:05.743Z,10.70
2023-04-25T02:50:35.023Z,10.70
2023-04-25T02:53:04.043Z,10.70
2023-04-25T02:55:41.023Z,10.70
2023-04-25T02:58:10.172Z,10.70
2023-04-25T03:00:46.873Z,10.70
2023-04-25T03:03:18.865Z,10.70
2023-04-25T03:05:48.378Z,10.70
2023-04-25T03:08:20.206Z,10.70
2023-04-25T03:10:52.747Z,10.70
2023-04-25T03:13:21.848Z,10.70
2023-04-25T03:15:51.014Z,10.70
2023-04-25T03:18:26.609Z,10.70
2023-04-25T03:20:58.045Z,10.70
2023-04-25T03:23:28.319Z,10.70
2023-04-25T03:25:59.506Z,10.70
2023-04-25T03:28:29.157Z,10.70
2023-04-25T03:30:59.295Z,10.70
2023-04-25T03:33:30.110Z,10.70
2023-04-25T03:36:02.100Z,10.80
2023-04-25T03:38:32.885Z,10.80
2023-04-25T03:41:22.191Z,10.80
2023-04-25T03:43:56.521Z,10.80
2023-04-25T03:46:26.032Z,10.90
2023-04-25T03:48:55.805Z,11.00
2023-04-25T03:51:31.881Z,11.00
2023-04-25T03:54:19.339Z,11.10
2023-04-25T03:57:03.637Z,11.10
2023-04-25T03:59:41.354Z,11.20
2023-04-25T04:02:13.031Z,11.30
2023-04-25T04:04:45.568Z,11.40
2023-04-25T04:07:15.800Z,11.50
2023-04-25T04:09:48.139Z,11.50
2023-04-25T04:12:26.401Z,11.60
2023-04-25T04:14:55.572Z,11.70
2023-04-25T04:17:24.743Z,11.80
2023-04-25T04:19:56.414Z,11.90
2023-04-25T04:22:27.155Z,12.00
2023-04-25T04:25:00.101Z,12.10
2023-04-25T04:28:00.126Z,12.20
2023-04-25T04:30:47.215Z,12.40
2023-04-25T04:33:16.887Z,12.50
2023-04-25T04:35:49.740Z,12.60
2023-04-25T04:38:21.128Z,12.60
2023-04-25T04:41:08.938Z,12.80
2023-04-25T04:43:52.222Z,12.90
2023-04-25T04:46:47.990Z,12.90
2023-04-25T04:49:35.284Z,13.00
2023-04-25T04:52:22.605Z,13.10
2023-04-25T04:55:05.308Z,13.20
2023-04-25T04:57:47.437Z,13.20
2023-04-25T05:00:44.736Z,13.30
2023-04-25T05:03:28.563Z,13.50
2023-04-25T05:06:18.653Z,13.60
2023-04-25T05:09:10.335Z,13.70
2023-04-25T05:11:58.011Z,13.90
2023-04-25T05:14:41.844Z,14.00
2023-04-25T05:17:47.442Z,14.20
2023-04-25T05:20:35.004Z,14.40
2023-04-25T05:23:36.421Z,14.60
2023-04-25T05:26:19.450Z,14.80
2023-04-25T05:29:08.706Z,14.90
2023-04-25T05:31:56.359Z,15.00
2023-04-25T05:34:28.136Z,15.30
2023-04-25T05:37:04.081Z,15.10
2023-04-25T05:39:34.854Z,15.20
2023-04-25T05:42:11.625Z,15.30
2023-04-25T05:44:52.953Z,15.30
2023-04-25T05:47:40.047Z,15.40
2023-04-25T05:50:15.935Z,15.40
2023-04-25T05:52:52.461Z,15.40
2023-04-25T05:55:47.653Z,15.40
2023-04-25T05:58:25.232Z,15.50
2023-04-25T06:00:54.734Z,15.50
2023-04-25T06:03:24.127Z,15.60
2023-04-25T06:05:55.763Z,15.60
2023-04-25T06:08:24.871Z,15.70
2023-04-25T06:10:53.904Z,15.80
2023-04-25T06:13:22.958Z,15.90
2023-04-25T06:15:52.145Z,16.00
2023-04-25T06:18:21.297Z,16.20
2023-04-25T06:20:50.460Z,16.40
2023-04-25T06:23:36.755Z,16.50
2023-04-25T06:26:10.112Z,16.70
2023-04-25T06:28:45.607Z,16.80
2023-04-25T06:31:16.320Z,16.80
2023-04-25T06:33:46.995Z,16.90
2023-04-25T06:36:16.269Z,16.90
2023-04-25T06:38:49.148Z,16.90
2023-04-25T06:41:18.400Z,16.80
2023-04-25T06:43:47.557Z,16.80
2023-04-25T06:46:40.530Z,16.80
2023-04-25T06:49:09.681Z,16.90
2023-04-25T06:51:39.083Z,17.00
2023-04-25T06:54:09.817Z,17.20
2023-04-25T06:56:47.183Z,17.40
2023-04-25T06:59:35.136Z,17.60
2023-04-25T07:02:05.387Z,17.80
2023-04-25T07:04:34.944Z,17.90
2023-04-25T07:07:05.159Z,18.00
2023-04-25T07:09:45.906Z,18.10
2023-04-25T07:12:15.123Z,18.10
2023-04-25T07:14:44.187Z,18.20
2023-04-25T07:17:13.822Z,18.30
2023-04-25T07:19:43.238Z,18.50
2023-04-25T07:22:12.505Z,18.60
2023-04-25T07:24:48.560Z,18.70
2023-04-25T07:27:19.222Z,18.70
2023-04-25T07:30:14.852Z,18.80
2023-04-25T07:32:44.026Z,19.00
2023-04-25T07:35:13.004Z,19.10
2023-04-25T07:37:43.758Z,19.20
2023-04-25T07:40:20.603Z,19.30
2023-04-25T07:42:57.497Z,19.50
2023-04-25T07:45:42.486Z,19.60
2023-04-25T07:48:29.787Z,19.70
2023-04-25T07:50:59.664Z,19.90
2023-04-25T07:53:28.921Z,20.00
2023-04-25T07:56:05.438Z,20.10
2023-04-25T07:58:37.626Z,20.20
2023-04-25T08:01:09.034Z,20.30
2023-04-25T08:03:49.259Z,20.40
2023-04-25T08:06:26.078Z,20.50
2023-04-25T08:09:06.144Z,20.60
2023-04-25T08:11:41.752Z,20.80
2023-04-25T08:14:14.872Z,20.90
2023-04-25T08:16:45.855Z,21.00
2023-04-25T08:19:16.686Z,21.10
2023-04-25T08:21:47.387Z,21.20
2023-04-25T08:24:21.563Z,21.30
2023-04-25T08:26:52.219Z,21.40
2023-04-25T08:29:25.606Z,21.50
2023-04-25T08:31:55.722Z,21.60
2023-04-25T08:34:44.475Z,21.80
2023-04-25T08:37:13.515Z,21.90
2023-04-25T08:39:52.110Z,22.00
2023-04-25T08:42:42.965Z,22.10
2023-04-25T08:45:13.390Z,22.30
2023-04-25T08:47:47.325Z,22.40
2023-04-25T08:50:20.536Z,22.50
2023-04-25T08:52:53.705Z,22.60
2023-04-25T08:55:24.089Z,22.70
2023-04-25T08:58:13.459Z,22.80
2023-04-25T09:00:43.625Z,22.90
2023-04-25T09:03:14.035Z,23.00
2023-04-25T09:05:47.530Z,23.10
2023-04-25T09:08:18.359Z,23.20
2023-04-25T09:10:47.981Z,23.20
2023-04-25T09:13:36.881Z,23.30
2023-04-25T09:16:24.345Z,23.30
2023-04-25T09:19:38.881Z,23.30
2023-04-25T09:22:22.972Z,23.20
2023-04-25T09:25:15.755Z,23.20
2023-04-25T09:27:57.254Z,23.10
2023-04-25T09:30:37.126Z,23.00
2023-04-25T09:33:22.533Z,22.90
2023-04-25T09:35:56.525Z,22.60
2023-04-25T09:38:47.298Z,22.50
2023-04-25T09:41:39.767Z,22.30
2023-04-25T09:44:09.184Z,22.10
2023-04-25T09:46:43.247Z,22.00
2023-04-25T09:49:23.245Z,21.80
2023-04-25T09:52:08.107Z,21.60
2023-04-25T09:54:46.737Z,21.40
2023-04-25T09:57:20.449Z,21.30
2023-04-25T09:59:52.296Z,21.30
2023-04-25T10:02:26.580Z,21.20
2023-04-25T10:05:01.611Z,21.20
2023-04-25T10:07:39.447Z,21.20
2023-04-25T10:10:16.057Z,21.20
2023-04-25T10:12:46.308Z,21.30
2023-04-25T10:15:17.567Z,21.30
2023-04-25T10:17:48.442Z,21.30
2023-04-25T10:20:19.547Z,21.30
2023-04-25T10:22:50.033Z,21.30
2023-04-25T10:25:19.554Z,21.30
2023-04-25T10:27:48.625Z,21.30
2023-04-25T10:30:18.168Z,21.40
2023-04-25T10:32:51.811Z,21.40
2023-04-25T10:35:26.258Z,21.50
2023-04-25T10:38:00.724Z,21.70
2023-04-25T10:40:30.003Z,21.80
2023-04-25T10:43:19.248Z,22.00
2023-04-25T10:45:55.315Z,22.20
2023-04-25T10:48:33.247Z,22.20
2023-04-25T10:51:11.035Z,22.20
2023-04-25T10:53:40.550Z,22.20
2023-04-25T10:56:14.538Z,22.10
2023-04-25T10:58:48.671Z,21.90
2023-04-25T11:01:23.994Z,21.70
2023-04-25T11:04:00.988Z,21.40
2023-04-25T11:06:40.072Z,21.10
2023-04-25T11:09:15.282Z,21.00
2023-04-25T11:11:44.500Z,20.90
2023-04-25T11:14:13.589Z,20.90
2023-04-25T11:16:42.681Z,20.90
2023-04-25T11:19:13.247Z,20.90
2023-04-25T11:21:42.391Z,21.00
2023-04-25T11:24:11.512Z,21.10
2023-04-25T11:26:40.587Z,21.30
2023-04-25T11:29:09.572Z,21.60
2023-04-25T11:31:38.548Z,21.90
2023-04-25T11:34:07.765Z,22.20
2023-04-25T11:36:40.974Z,22.60
2023-04-25T11:39:10.412Z,22.80
2023-04-25T11:41:41.545Z,22.90
2023-04-25T11:44:11.305Z,23.10
2023-04-25T11:46:40.485Z,23.20
2023-04-25T11:49:09.544Z,23.30
2023-04-25T11:51:43.348Z,23.40
2023-04-25T11:54:12.894Z,23.50
2023-04-25T11:56:44.666Z,23.50
2023-04-25T11:59:14.441Z,23.50
2023-04-25T12:01:50.237Z,23.50
2023-04-25T12:04:21.685Z,23.60
2023-04-25T12:06:54.656Z,23.80
2023-04-25T12:09:31.412Z,24.00
2023-04-25T12:12:04.315Z,24.10
2023-04-25T12:14:35.168Z,24.10
2023-04-25T12:17:09.174Z,24.00
2023-04-25T12:19:41.597Z,23.90
2023-04-25T12:22:24.835Z,23.80
2023-04-25T12:24:55.291Z,23.90
2023-04-25T12:27:24.497Z,23.90
2023-04-25T12:29:55.424Z,24.00
2023-04-25T12:32:24.720Z,24.10
2023-04-25T12:34:53.783Z,24.20
2023-04-25T12:37:24.305Z,24.40
2023-04-25T12:39:53.786Z,24.50
2023-04-25T12:42:22.759Z,24.60
2023-04-25T12:44:51.808Z,24.70
2023-04-25T12:47:21.152Z,24.90
2023-04-25T12:49:50.280Z,24.90
2023-04-25T12:52:19.297Z,24.90
2023-04-25T12:54:49.780Z,24.80
2023-04-25T12:57:18.830Z,24.70
2023-04-25T12:59:47.741Z,24.70
2023-04-25T13:02:16.842Z,24.50
2023-04-25T13:04:46.892Z,24.30
2023-04-25T13:07:17.181Z,24.10
2023-04-25T13:09:46.329Z,24.00
2023-04-25T13:12:18.241Z,23.90
2023-04-25T13:14:47.402Z,23.90
2023-04-25T13:17:16.409Z,24.00
2023-04-25T13:19:45.439Z,24.20
2023-04-25T13:22:16.544Z,24.50
2023-04-25T13:24:46.122Z,24.80
2023-04-25T13:27:35.436Z,25.00
2023-04-25T13:30:08.548Z,25.20
2023-04-25T13:32:39.026Z,25.20
2023-04-25T13:35:10.984Z,25.20
2023-04-25T13:37:59.053Z,25.20
2023-04-25T13:40:28.302Z,25.00
2023-04-25T13:42:59.247Z,24.90
2023-04-25T13:45:30.068Z,24.80
2023-04-25T13:48:01.894Z,24.70
2023-04-25T13:50:34.732Z,24.60
2023-04-25T13:53:03.925Z,24.50
2023-04-25T13:55:32.927Z,24.30
2023-04-25T13:58:08.659Z,24.20
2023-04-25T14:00:40.701Z,24.10
2023-04-25T14:03:10.487Z,24.00
2023-04-25T14:05:40.632Z,23.80
2023-04-25T14:08:10.377Z,23.70
2023-04-25T14:10:39.901Z,23.60
2023-04-25T14:13:11.078Z,23.40
2023-04-25T14:15:40.689Z,23.30
2023-04-25T14:18:09.699Z,23.20
2023-04-25T14:20:39.134Z,23.10
2023-04-25T14:23:08.238Z,23.00
2023-04-25T14:25:38.190Z,22.80
2023-04-25T14:28:07.831Z,22.70
2023-04-25T14:30:38.380Z,22.60
2023-04-25T14:33:07.977Z,22.50
2023-04-25T14:35:38.856Z,22.40
2023-04-25T14:38:09.065Z,22.30
2023-04-25T14:40:38.778Z,22.20
2023-04-25T14:43:07.867Z,22.10
2023-04-25T14:45:38.680Z,22.00
2023-04-25T14:48:08.142Z,21.90
2023-04-25T14:50:37.232Z,21.80
2023-04-25T14:53:06.867Z,21.70
2023-04-25T14:55:36.215Z,21.60
2023-04-25T14:58:05.283Z,21.50
2023-04-25T15:00:34.402Z,21.40
2023-04-25T15:03:05.585Z,21.20
2023-04-25T15:05:34.813Z,21.10
2023-04-25T15:08:05.065Z,20.90
2023-04-25T15:10:34.307Z,20.70
2023-04-25T15:13:03.734Z,20.50
2023-04-25T15:15:32.904Z,20.30
2023-04-25T15:18:03.506Z,20.00
2023-04-25T15:20:32.870Z,19.80
2023-04-25T15:23:04.664Z,19.60
2023-04-25T15:25:33.654Z,19.30
2023-04-25T15:28:06.138Z,19.20
2023-04-25T15:30:35.285Z,19.00
2023-04-25T15:33:06.494Z,18.90
2023-04-25T15:35:37.226Z,18.80
2023-04-25T15:38:06.811Z,18.70
2023-04-25T15:40:36.170Z,18.70
2023-04-25T15:43:05.801Z,18.60
2023-04-25T15:45:37.974Z,18.50
2023-04-25T15:48:27.159Z,18.50
2023-04-25T15:50:56.488Z,18.40
2023-04-25T15:53:28.226Z,18.30
2023-04-25T15:55:57.532Z,18.30
2023-04-25T15:58:27.631Z,18.30
2023-04-25T16:00:57.577Z,18.20
2023-04-25T16:03:28.740Z,18.10
2023-04-25T16:05:58.240Z,18.10
2023-04-25T16:08:29.997Z,18.00
2023-04-25T16:10:59.695Z,18.00
2023-04-25T16:13:30.230Z,17.90
2023-04-25T16:15:59.372Z,17.90
2023-04-25T16:18:30.187Z,17.80
2023-04-25T16:20:59.440Z,17.80
2023-04-25T16:23:28.458Z,17.60
2023-04-25T16:25:57.947Z,17.70
2023-04-25T16:28:27.088Z,17.70
2023-04-25T16:30:56.337Z,17.60
2023-04-25T16:33:25.697Z,17.60
2023-04-25T16:35:57.078Z,17.60
2023-04-25T16:38:26.403Z,17.50
2023-04-25T16:40:56.358Z,17.50
2023-04-25T16:43:25.506Z,17.50
2023-04-25T16:45:54.618Z,17.40
2023-04-25T16:48:24.641Z,17.40
2023-04-25T16:50:55.711Z,17.40
2023-04-25T16:53:25.444Z,17.30
2023-04-25T16:55:57.234Z,17.30
2023-04-25T16:58:27.415Z,17.20
2023-04-25T17:00:58.096Z,17.20
2023-04-25T17:03:27.666Z,17.10
2023-04-25T17:05:58.359Z,17.10
2023-04-25T17:08:28.107Z,17.00
2023-04-25T17:10:57.527Z,16.80
2023-04-25T17:13:31.118Z,16.90
2023-04-25T17:16:01.421Z,16.80
2023-04-25T17:18:31.512Z,16.70
2023-04-25T17:21:02.477Z,16.60
2023-04-25T17:23:33.772Z,16.50
2023-04-25T17:26:03.518Z,16.50
2023-04-25T17:28:33.306Z,16.40
2023-04-25T17:31:03.138Z,16.30
2023-04-25T17:33:32.760Z,16.30
2023-04-25T17:36:04.364Z,16.30
2023-04-25T17:38:34.444Z,16.20
2023-04-25T17:41:04.680Z,16.20
2023-04-25T17:43:34.804Z,16.20
2023-04-25T17:46:04.749Z,16.20
2023-04-25T17:48:34.320Z,16.20
2023-04-25T17:51:05.532Z,16.20
2023-04-25T17:53:38.390Z,16.10
2023-04-25T17:56:23.390Z,16.10
2023-04-25T17:58:56.007Z,16.00
2023-04-25T18:01:25.602Z,16.00
2023-04-25T18:04:02.202Z,15.90
2023-04-25T18:06:33.280Z,15.90
2023-04-25T18:09:03.265Z,15.80
2023-04-25T18:11:32.563Z,15.80
2023-04-25T18:14:04.150Z,15.70
2023-04-25T18:16:33.510Z,15.70
2023-04-25T18:19:05.976Z,15.60
2023-04-25T18:21:36.695Z,15.50
2023-04-25T18:24:06.161Z,15.50
2023-04-25T18:26:35.455Z,15.50
2023-04-25T18:29:04.854Z,15.40
2023-04-25T18:31:34.450Z,15.40
2023-04-25T18:34:03.978Z,15.40
2023-04-25T18:36:33.242Z,15.40
2023-04-25T18:39:21.527Z,15.40
2023-04-25T18:41:59.340Z,15.40
2023-04-25T18:44:34.386Z,15.40
2023-04-25T18:47:03.836Z,15.40
2023-04-25T18:49:33.227Z,15.50
2023-04-25T18:52:03.991Z,15.50
2023-04-25T18:54:34.577Z,15.60
2023-04-25T18:57:04.445Z,15.50
2023-04-25T18:59:43.402Z,15.30
2023-04-25T19:02:13.541Z,15.50
2023-04-25T19:04:42.860Z,15.40
2023-04-25T19:07:12.176Z,15.40
2023-04-25T19:09:42.766Z,15.30
2023-04-25T19:12:11.936Z,15.20
2023-04-25T19:14:41.129Z,15.20
2023-04-25T19:17:10.304Z,15.20
2023-04-25T19:19:39.734Z,15.20
2023-04-25T19:22:08.939Z,15.10
2023-04-25T19:24:38.567Z,15.10
2023-04-25T19:27:09.304Z,15.10
2023-04-25T19:29:44.698Z,15.10
2023-04-25T19:32:13.888Z,15.10
2023-04-25T19:34:46.365Z,15.10
2023-04-25T19:37:15.510Z,15.10
2023-04-25T19:39:44.717Z,15.20
2023-04-25T19:42:15.230Z,15.20
2023-04-25T19:44:44.331Z,15.30
2023-04-25T19:47:20.313Z,15.30
2023-04-25T19:49:49.508Z,15.30
2023-04-25T19:52:18.671Z,15.40
2023-04-25T19:54:47.824Z,15.40
2023-04-25T19:57:20.740Z,15.30
2023-04-25T19:59:49.982Z,15.30
2023-04-25T20:02:21.506Z,15.30
2023-04-25T20:04:51.304Z,15.20
2023-04-25T20:07:22.914Z,15.20
2023-04-25T20:09:52.195Z,15.20
2023-04-25T20:12:22.631Z,15.10
2023-04-25T20:14:52.049Z,15.10
2023-04-25T20:17:21.229Z,15.10
2023-04-25T20:19:50.704Z,15.00
2023-04-25T20:22:20.139Z,15.00
2023-04-25T20:24:55.354Z,15.00
2023-04-25T20:27:28.768Z,15.00
2023-04-25T20:29:59.164Z,15.00
2023-04-25T20:32:28.724Z,15.10
2023-04-25T20:34:58.106Z,15.10
2023-04-25T20:37:27.743Z,15.10
2023-04-25T20:39:57.240Z,15.10
2023-04-25T20:42:27.776Z,15.10
2023-04-25T20:44:57.101Z,15.10
2023-04-25T20:47:26.337Z,15.10
2023-04-25T20:49:55.626Z,15.10
2023-04-25T20:52:25.273Z,15.20
2023-04-25T20:54:54.408Z,15.20
2023-04-25T20:57:23.769Z,15.20
2023-04-25T20:59:56.002Z,15.20
2023-04-25T21:02:25.842Z,15.20
2023-04-25T21:04:57.912Z,15.30
2023-04-25T21:07:27.205Z,15.30
2023-04-25T21:09:56.665Z,15.40
2023-04-25T21:12:28.988Z,15.40
2023-04-25T21:15:00.755Z,15.40
2023-04-25T21:17:29.906Z,15.50
2023-04-25T21:19:58.954Z,15.50
2023-04-25T21:22:28.127Z,15.50
2023-04-25T21:25:04.873Z,15.40
2023-04-25T21:27:34.212Z,15.50
2023-04-25T21:30:05.473Z,15.50
2023-04-25T21:32:36.281Z,15.50
2023-04-25T21:35:05.830Z,15.50
2023-04-25T21:37:34.889Z,15.60
2023-04-25T21:40:07.660Z,15.60
2023-04-25T21:42:44.871Z,15.60
2023-04-25T21:45:15.511Z,15.60
2023-04-25T21:47:47.925Z,15.60
2023-04-25T21:50:17.498Z,15.60
2023-04-25T21:52:49.871Z,15.60
2023-04-25T21:55:20.006Z,15.60
2023-04-25T21:57:49.107Z,15.50
2023-04-25T22:00:25.057Z,15.50
2023-04-25T22:02:55.504Z,15.50
2023-04-25T22:05:26.938Z,15.50
2023-04-25T22:07:57.857Z,15.50
2023-04-25T22:10:29.226Z,15.40
2023-04-25T22:13:06.568Z,15.50
2023-04-25T22:15:38.403Z,15.50
2023-04-25T22:18:08.320Z,15.50
2023-04-25T22:20:39.356Z,15.50
2023-04-25T22:23:08.520Z,15.50
2023-04-25T22:25:37.551Z,15.50
2023-04-25T22:28:06.686Z,15.50
2023-04-25T22:30:38.077Z,15.40
2023-04-25T22:33:07.258Z,15.40
2023-04-25T22:35:36.432Z,15.40
2023-04-25T22:38:05.340Z,15.30
2023-04-25T22:40:34.468Z,15.30
2023-04-25T22:43:03.587Z,15.30
2023-04-25T22:45:32.742Z,15.30
2023-04-25T22:48:03.849Z,15.30
2023-04-25T22:50:33.259Z,15.30
2023-04-25T22:53:04.246Z,15.20
2023-04-25T22:55:33.246Z,15.20
2023-04-25T22:58:02.747Z,15.20
2023-04-25T23:00:34.642Z,15.20
2023-04-25T23:03:06.357Z,15.20
2023-04-25T23:05:35.853Z,15.10
2023-04-25T23:08:05.772Z,15.10
2023-04-25T23:10:35.349Z,15.00
2023-04-25T23:13:04.563Z,15.00
2023-04-25T23:15:33.522Z,14.90
2023-04-25T23:18:04.892Z,14.90
2023-04-25T23:20:34.013Z,14.80
2023-04-25T23:23:03.101Z,14.80
2023-04-25T23:25:32.774Z,14.80
2023-04-25T23:28:01.843Z,14.80
2023-04-25T23:30:30.951Z,14.70
2023-04-25T23:33:00.022Z,14.70
2023-04-25T23:35:30.688Z,14.80
2023-04-25T23:38:00.022Z,14.80
2023-04-25T23:40:31.974Z,14.80
2023-04-25T23:43:02.462Z,14.80
2023-04-25T23:45:31.727Z,14.80
2023-04-25T23:48:00.836Z,14.80
2023-04-25T23:50:32.549Z,14.80
2023-04-25T23:53:01.560Z,14.70
2023-04-25T23:55:31.056Z,14.70
2023-04-25T23:58:00.550Z,14.70
